Weather at Sherbrooke Airport

Public forecast

Using degrees Celsius for public forecast. Weather courtesy of forecast.io.

Current aviation weather report (METAR) for Sherbrooke Airport

Retrieved 2021/03/08 15:00 UTC (2 hours ago):

CYSC 081500Z AUTO VRB02KT 9SM FEW250 M08/M16 A3037 RMK SLP305

Aviation forecast (TAF) for Sherbrooke Airport

Retrieved 2021/03/08 11:00 UTC (6 hours ago):

TAF CYSC 081040Z 0811/0823 VRB03KT P6SM SKC BECMG 0816/0818 27008KT BECMG 0821/0823 VRB03KT RMK FCST BASED ON AUTO OBS NXT FCST BY 081800Z